sensor_id;sensor_type;location;lat;lon;timestamp;P1;durP1;ratioP1;P2;durP2;ratioP2
2658;SDS011;1339;53.304;10.406;2022-12-20T00:02:08;14.23;;;10.10;;
2658;SDS011;1339;53.304;10.406;2022-12-20T00:04:35;14.85;;;10.55;;
2658;SDS011;1339;53.304;10.406;2022-12-20T00:07:02;12.10;;;10.25;;
2658;SDS011;1339;53.304;10.406;2022-12-20T00:09:29;13.95;;;11.43;;
2658;SDS011;1339;53.304;10.406;2022-12-20T00:11:56;12.90;;;10.60;;
2658;SDS011;1339;53.304;10.406;2022-12-20T00:14:23;11.15;;;9.90;;
2658;SDS011;1339;53.304;10.406;2022-12-20T00:16:52;17.35;;;12.50;;
2658;SDS011;1339;53.304;10.406;2022-12-20T00:19:19;14.10;;;10.75;;
2658;SDS011;1339;53.304;10.406;2022-12-20T00:21:46;11.32;;;10.05;;
2658;SDS011;1339;53.304;10.406;2022-12-20T00:24:13;11.40;;;8.90;;
2658;SDS011;1339;53.304;10.406;2022-12-20T00:26:40;12.25;;;9.75;;
2658;SDS011;1339;53.304;10.406;2022-12-20T00:29:07;12.75;;;10.00;;
2658;SDS011;1339;53.304;10.406;2022-12-20T00:31:35;13.52;;;10.73;;
2658;SDS011;1339;53.304;10.406;2022-12-20T00:34:04;14.55;;;10.63;;
2658;SDS011;1339;53.304;10.406;2022-12-20T00:36:31;13.85;;;10.77;;
2658;SDS011;1339;53.304;10.406;2022-12-20T00:38:59;12.52;;;11.23;;
2658;SDS011;1339;53.304;10.406;2022-12-20T00:41:27;16.55;;;10.80;;
2658;SDS011;1339;53.304;10.406;2022-12-20T00:43:54;15.43;;;10.38;;
2658;SDS011;1339;53.304;10.406;2022-12-20T00:46:22;13.55;;;10.68;;
2658;SDS011;1339;53.304;10.406;2022-12-20T00:48:49;12.15;;;9.70;;
2658;SDS011;1339;53.304;10.406;2022-12-20T00:51:19;15.98;;;11.07;;
2658;SDS011;1339;53.304;10.406;2022-12-20T00:53:46;15.18;;;11.02;;
2658;SDS011;1339;53.304;10.406;2022-12-20T00:56:13;12.85;;;10.88;;
2658;SDS011;1339;53.304;10.406;2022-12-20T00:58:41;11.65;;;9.80;;
2658;SDS011;1339;53.304;10.406;2022-12-20T01:01:13;11.68;;;10.18;;
2658;SDS011;1339;53.304;10.406;2022-12-20T01:03:41;11.80;;;10.40;;
2658;SDS011;1339;53.304;10.406;2022-12-20T01:06:08;11.77;;;9.82;;
2658;SDS011;1339;53.304;10.406;2022-12-20T01:08:37;13.35;;;10.00;;
2658;SDS011;1339;53.304;10.406;2022-12-20T01:11:05;12.60;;;10.80;;
2658;SDS011;1339;53.304;10.406;2022-12-20T01:13:33;10.75;;;9.68;;
2658;SDS011;1339;53.304;10.406;2022-12-20T01:16:02;12.13;;;10.07;;
2658;SDS011;1339;53.304;10.406;2022-12-20T01:18:29;14.30;;;10.48;;
2658;SDS011;1339;53.304;10.406;2022-12-20T01:21:00;11.95;;;10.30;;
2658;SDS011;1339;53.304;10.406;2022-12-20T01:23:27;12.20;;;9.75;;
2658;SDS011;1339;53.304;10.406;2022-12-20T01:25:57;10.05;;;8.45;;
2658;SDS011;1339;53.304;10.406;2022-12-20T01:28:24;13.15;;;9.57;;
2658;SDS011;1339;53.304;10.406;2022-12-20T01:30:52;13.88;;;11.75;;
2658;SDS011;1339;53.304;10.406;2022-12-20T01:33:19;13.60;;;10.45;;
2658;SDS011;1339;53.304;10.406;2022-12-20T01:35:53;15.27;;;11.48;;
2658;SDS011;1339;53.304;10.406;2022-12-20T01:38:20;13.50;;;10.55;;
2658;SDS011;1339;53.304;10.406;2022-12-20T01:40:48;12.57;;;9.48;;
2658;SDS011;1339;53.304;10.406;2022-12-20T01:43:16;13.43;;;11.05;;
2658;SDS011;1339;53.304;10.406;2022-12-20T01:45:44;12.60;;;10.40;;
2658;SDS011;1339;53.304;10.406;2022-12-20T01:48:12;12.48;;;10.15;;
2658;SDS011;1339;53.304;10.406;2022-12-20T01:50:40;11.77;;;10.57;;
2658;SDS011;1339;53.304;10.406;2022-12-20T01:53:07;11.45;;;10.25;;
2658;SDS011;1339;53.304;10.406;2022-12-20T01:55:35;11.57;;;10.38;;
2658;SDS011;1339;53.304;10.406;2022-12-20T01:58:03;12.35;;;10.18;;
2658;SDS011;1339;53.304;10.406;2022-12-20T02:00:32;12.27;;;10.68;;
2658;SDS011;1339;53.304;10.406;2022-12-20T02:03:02;11.80;;;10.70;;
2658;SDS011;1339;53.304;10.406;2022-12-20T02:05:32;11.20;;;9.50;;
2658;SDS011;1339;53.304;10.406;2022-12-20T02:08:00;11.45;;;10.07;;
2658;SDS011;1339;53.304;10.406;2022-12-20T02:10:28;12.65;;;10.00;;
2658;SDS011;1339;53.304;10.406;2022-12-20T02:13:00;15.60;;;10.68;;
2658;SDS011;1339;53.304;10.406;2022-12-20T02:15:31;14.38;;;10.73;;
2658;SDS011;1339;53.304;10.406;2022-12-20T02:18:05;14.48;;;10.05;;
2658;SDS011;1339;53.304;10.406;2022-12-20T02:20:46;13.68;;;10.43;;
2658;SDS011;1339;53.304;10.406;2022-12-20T02:23:24;12.50;;;9.45;;
2658;SDS011;1339;53.304;10.406;2022-12-20T02:25:59;14.73;;;10.25;;
2658;SDS011;1339;53.304;10.406;2022-12-20T02:28:39;14.32;;;11.73;;
2658;SDS011;1339;53.304;10.406;2022-12-20T02:31:13;12.02;;;9.70;;
2658;SDS011;1339;53.304;10.406;2022-12-20T02:33:42;19.27;;;11.48;;
2658;SDS011;1339;53.304;10.406;2022-12-20T02:36:09;15.73;;;11.40;;
2658;SDS011;1339;53.304;10.406;2022-12-20T02:38:36;13.73;;;10.45;;
2658;SDS011;1339;53.304;10.406;2022-12-20T02:41:04;12.95;;;10.23;;
2658;SDS011;1339;53.304;10.406;2022-12-20T02:43:32;14.77;;;10.60;;
2658;SDS011;1339;53.304;10.406;2022-12-20T02:46:20;12.73;;;10.98;;
2658;SDS011;1339;53.304;10.406;2022-12-20T02:48:49;14.60;;;10.23;;
2658;SDS011;1339;53.304;10.406;2022-12-20T02:51:17;15.82;;;12.60;;
2658;SDS011;1339;53.304;10.406;2022-12-20T02:53:46;13.52;;;10.40;;
2658;SDS011;1339;53.304;10.406;2022-12-20T02:56:13;12.02;;;10.02;;
2658;SDS011;1339;53.304;10.406;2022-12-20T02:58:43;15.25;;;11.75;;
2658;SDS011;1339;53.304;10.406;2022-12-20T03:01:13;14.27;;;11.05;;
2658;SDS011;1339;53.304;10.406;2022-12-20T03:03:44;10.55;;;9.45;;
2658;SDS011;1339;53.304;10.406;2022-12-20T03:06:11;15.43;;;11.65;;
2658;SDS011;1339;53.304;10.406;2022-12-20T03:08:38;13.48;;;11.25;;
2658;SDS011;1339;53.304;10.406;2022-12-20T03:11:06;11.63;;;10.40;;
2658;SDS011;1339;53.304;10.406;2022-12-20T03:13:33;13.02;;;11.65;;
2658;SDS011;1339;53.304;10.406;2022-12-20T03:16:00;14.15;;;11.45;;
2658;SDS011;1339;53.304;10.406;2022-12-20T03:18:27;14.00;;;11.27;;
2658;SDS011;1339;53.304;10.406;2022-12-20T03:20:55;15.43;;;12.10;;
2658;SDS011;1339;53.304;10.406;2022-12-20T03:23:22;12.48;;;11.18;;
2658;SDS011;1339;53.304;10.406;2022-12-20T03:25:49;15.30;;;12.35;;
2658;SDS011;1339;53.304;10.406;2022-12-20T03:28:16;13.95;;;11.23;;
2658;SDS011;1339;53.304;10.406;2022-12-20T03:30:43;12.50;;;11.20;;
2658;SDS011;1339;53.304;10.406;2022-12-20T03:33:10;14.68;;;12.85;;
2658;SDS011;1339;53.304;10.406;2022-12-20T03:35:38;12.57;;;10.10;;
2658;SDS011;1339;53.304;10.406;2022-12-20T03:38:06;12.68;;;10.60;;
2658;SDS011;1339;53.304;10.406;2022-12-20T03:40:33;17.38;;;11.73;;
2658;SDS011;1339;53.304;10.406;2022-12-20T03:43:01;13.38;;;11.27;;
2658;SDS011;1339;53.304;10.406;2022-12-20T03:45:28;16.35;;;11.15;;
2658;SDS011;1339;53.304;10.406;2022-12-20T03:47:55;14.80;;;11.27;;
2658;SDS011;1339;53.304;10.406;2022-12-20T03:50:22;14.80;;;10.15;;
2658;SDS011;1339;53.304;10.406;2022-12-20T03:52:49;14.65;;;13.00;;
2658;SDS011;1339;53.304;10.406;2022-12-20T03:55:18;15.68;;;11.48;;
2658;SDS011;1339;53.304;10.406;2022-12-20T03:57:45;16.40;;;12.50;;
2658;SDS011;1339;53.304;10.406;2022-12-20T04:00:12;15.02;;;12.10;;
2658;SDS011;1339;53.304;10.406;2022-12-20T04:02:40;15.65;;;11.25;;
2658;SDS011;1339;53.304;10.406;2022-12-20T04:05:07;11.60;;;10.02;;
2658;SDS011;1339;53.304;10.406;2022-12-20T04:07:34;13.35;;;10.77;;
2658;SDS011;1339;53.304;10.406;2022-12-20T04:10:01;15.50;;;12.85;;
2658;SDS011;1339;53.304;10.406;2022-12-20T04:12:30;13.02;;;10.63;;
2658;SDS011;1339;53.304;10.406;2022-12-20T04:14:57;16.90;;;12.05;;
2658;SDS011;1339;53.304;10.406;2022-12-20T04:17:24;17.60;;;12.20;;
2658;SDS011;1339;53.304;10.406;2022-12-20T04:19:51;11.85;;;10.45;;
2658;SDS011;1339;53.304;10.406;2022-12-20T04:22:18;13.10;;;11.05;;
2658;SDS011;1339;53.304;10.406;2022-12-20T04:24:45;12.23;;;10.50;;
2658;SDS011;1339;53.304;10.406;2022-12-20T04:27:13;12.52;;;10.20;;
2658;SDS011;1339;53.304;10.406;2022-12-20T04:29:41;18.77;;;12.30;;
2658;SDS011;1339;53.304;10.406;2022-12-20T04:32:08;12.07;;;10.88;;
2658;SDS011;1339;53.304;10.406;2022-12-20T04:34:35;13.40;;;11.88;;
2658;SDS011;1339;53.304;10.406;2022-12-20T04:37:02;16.05;;;11.60;;
2658;SDS011;1339;53.304;10.406;2022-12-20T04:39:29;13.90;;;11.30;;
2658;SDS011;1339;53.304;10.406;2022-12-20T04:41:56;12.57;;;10.75;;
2658;SDS011;1339;53.304;10.406;2022-12-20T04:44:23;14.15;;;11.38;;
2658;SDS011;1339;53.304;10.406;2022-12-20T04:46:52;19.65;;;12.05;;
2658;SDS011;1339;53.304;10.406;2022-12-20T04:49:19;14.68;;;11.60;;
2658;SDS011;1339;53.304;10.406;2022-12-20T04:51:46;18.77;;;11.85;;
2658;SDS011;1339;53.304;10.406;2022-12-20T04:54:13;15.68;;;12.00;;
2658;SDS011;1339;53.304;10.406;2022-12-20T04:56:39;11.60;;;10.18;;
2658;SDS011;1339;53.304;10.406;2022-12-20T04:59:06;15.60;;;12.02;;
2658;SDS011;1339;53.304;10.406;2022-12-20T05:01:34;14.95;;;12.23;;
2658;SDS011;1339;53.304;10.406;2022-12-20T05:04:03;14.75;;;12.20;;
2658;SDS011;1339;53.304;10.406;2022-12-20T05:06:30;11.95;;;10.75;;
2658;SDS011;1339;53.304;10.406;2022-12-20T05:08:57;13.23;;;11.60;;
2658;SDS011;1339;53.304;10.406;2022-12-20T05:11:24;12.73;;;10.82;;
2658;SDS011;1339;53.304;10.406;2022-12-20T05:13:51;14.35;;;11.80;;
2658;SDS011;1339;53.304;10.406;2022-12-20T05:16:18;16.40;;;11.70;;
2658;SDS011;1339;53.304;10.406;2022-12-20T05:18:45;12.40;;;11.10;;
2658;SDS011;1339;53.304;10.406;2022-12-20T05:21:14;12.52;;;11.23;;
2658;SDS011;1339;53.304;10.406;2022-12-20T05:23:59;14.32;;;11.20;;
2658;SDS011;1339;53.304;10.406;2022-12-20T05:26:43;13.25;;;11.30;;
2658;SDS011;1339;53.304;10.406;2022-12-20T05:29:10;13.52;;;11.05;;
2658;SDS011;1339;53.304;10.406;2022-12-20T05:31:37;15.30;;;11.35;;
2658;SDS011;1339;53.304;10.406;2022-12-20T05:34:04;12.95;;;11.65;;
2658;SDS011;1339;53.304;10.406;2022-12-20T05:36:33;12.32;;;10.98;;
2658;SDS011;1339;53.304;10.406;2022-12-20T05:39:00;15.00;;;13.40;;
2658;SDS011;1339;53.304;10.406;2022-12-20T05:41:27;14.55;;;11.43;;
2658;SDS011;1339;53.304;10.406;2022-12-20T05:43:54;14.60;;;10.65;;
2658;SDS011;1339;53.304;10.406;2022-12-20T05:46:21;13.00;;;10.65;;
2658;SDS011;1339;53.304;10.406;2022-12-20T05:48:48;15.02;;;10.30;;
2658;SDS011;1339;53.304;10.406;2022-12-20T05:51:15;12.05;;;10.13;;
2658;SDS011;1339;53.304;10.406;2022-12-20T05:53:44;13.75;;;11.25;;
2658;SDS011;1339;53.304;10.406;2022-12-20T05:56:11;14.95;;;11.18;;
2658;SDS011;1339;53.304;10.406;2022-12-20T05:58:38;12.98;;;10.65;;
2658;SDS011;1339;53.304;10.406;2022-12-20T06:01:06;14.52;;;12.40;;
2658;SDS011;1339;53.304;10.406;2022-12-20T06:03:34;16.70;;;12.23;;
2658;SDS011;1339;53.304;10.406;2022-12-20T06:06:01;15.35;;;13.40;;
2658;SDS011;1339;53.304;10.406;2022-12-20T06:08:28;17.92;;;13.50;;
2658;SDS011;1339;53.304;10.406;2022-12-20T06:10:57;16.10;;;12.98;;
2658;SDS011;1339;53.304;10.406;2022-12-20T06:13:25;15.05;;;13.40;;
2658;SDS011;1339;53.304;10.406;2022-12-20T06:15:52;20.55;;;13.05;;
2658;SDS011;1339;53.304;10.406;2022-12-20T06:18:19;16.25;;;13.00;;
2658;SDS011;1339;53.304;10.406;2022-12-20T06:20:48;16.08;;;12.35;;
2658;SDS011;1339;53.304;10.406;2022-12-20T06:23:15;15.30;;;13.10;;
2658;SDS011;1339;53.304;10.406;2022-12-20T06:25:42;17.65;;;13.35;;
2658;SDS011;1339;53.304;10.406;2022-12-20T06:28:11;17.23;;;13.23;;
2658;SDS011;1339;53.304;10.406;2022-12-20T06:30:38;18.58;;;13.00;;
2658;SDS011;1339;53.304;10.406;2022-12-20T06:33:05;19.88;;;14.02;;
2658;SDS011;1339;53.304;10.406;2022-12-20T06:35:32;20.88;;;13.02;;
2658;SDS011;1339;53.304;10.406;2022-12-20T06:37:59;16.80;;;14.27;;
2658;SDS011;1339;53.304;10.406;2022-12-20T06:40:27;14.10;;;12.65;;
2658;SDS011;1339;53.304;10.406;2022-12-20T06:42:54;15.52;;;13.30;;
2658;SDS011;1339;53.304;10.406;2022-12-20T06:45:22;17.90;;;13.73;;
2658;SDS011;1339;53.304;10.406;2022-12-20T06:47:49;15.18;;;12.73;;
2658;SDS011;1339;53.304;10.406;2022-12-20T06:50:16;15.55;;;13.95;;
2658;SDS011;1339;53.304;10.406;2022-12-20T06:52:43;18.73;;;13.88;;
2658;SDS011;1339;53.304;10.406;2022-12-20T06:55:10;16.70;;;12.38;;
2658;SDS011;1339;53.304;10.406;2022-12-20T06:57:37;17.80;;;13.13;;
2658;SDS011;1339;53.304;10.406;2022-12-20T07:00:05;20.15;;;15.68;;
2658;SDS011;1339;53.304;10.406;2022-12-20T07:02:36;19.27;;;14.82;;
2658;SDS011;1339;53.304;10.406;2022-12-20T07:05:03;17.77;;;13.20;;
2658;SDS011;1339;53.304;10.406;2022-12-20T07:07:30;19.45;;;15.07;;
2658;SDS011;1339;53.304;10.406;2022-12-20T07:09:57;16.75;;;15.00;;
2658;SDS011;1339;53.304;10.406;2022-12-20T07:12:24;16.73;;;14.90;;
2658;SDS011;1339;53.304;10.406;2022-12-20T07:14:52;17.65;;;15.38;;
2658;SDS011;1339;53.304;10.406;2022-12-20T07:17:19;17.95;;;13.82;;
2658;SDS011;1339;53.304;10.406;2022-12-20T07:19:47;20.95;;;14.82;;
2658;SDS011;1339;53.304;10.406;2022-12-20T07:22:14;17.58;;;14.38;;
2658;SDS011;1339;53.304;10.406;2022-12-20T07:24:41;16.13;;;13.98;;
2658;SDS011;1339;53.304;10.406;2022-12-20T07:27:09;18.38;;;15.85;;
2658;SDS011;1339;53.304;10.406;2022-12-20T07:29:39;16.77;;;13.27;;
2658;SDS011;1339;53.304;10.406;2022-12-20T07:32:06;18.80;;;15.55;;
2658;SDS011;1339;53.304;10.406;2022-12-20T07:34:35;21.67;;;15.88;;
2658;SDS011;1339;53.304;10.406;2022-12-20T07:37:03;18.67;;;16.25;;
2658;SDS011;1339;53.304;10.406;2022-12-20T07:39:32;19.38;;;15.82;;
2658;SDS011;1339;53.304;10.406;2022-12-20T07:41:59;22.75;;;14.95;;
2658;SDS011;1339;53.304;10.406;2022-12-20T07:50:39;16.48;;;13.82;;
2658;SDS011;1339;53.304;10.406;2022-12-20T07:53:08;18.52;;;16.52;;
2658;SDS011;1339;53.304;10.406;2022-12-20T07:55:36;15.07;;;13.48;;
2658;SDS011;1339;53.304;10.406;2022-12-20T07:58:06;17.25;;;14.50;;
2658;SDS011;1339;53.304;10.406;2022-12-20T08:00:34;22.80;;;14.85;;
2658;SDS011;1339;53.304;10.406;2022-12-20T08:03:04;14.82;;;13.10;;
2658;SDS011;1339;53.304;10.406;2022-12-20T08:05:33;15.55;;;13.25;;
2658;SDS011;1339;53.304;10.406;2022-12-20T08:08:00;17.73;;;13.75;;
2658;SDS011;1339;53.304;10.406;2022-12-20T08:10:29;14.18;;;12.77;;
2658;SDS011;1339;53.304;10.406;2022-12-20T08:12:56;14.85;;;12.77;;
2658;SDS011;1339;53.304;10.406;2022-12-20T08:15:24;16.25;;;13.45;;
2658;SDS011;1339;53.304;10.406;2022-12-20T08:17:51;19.67;;;14.20;;
2658;SDS011;1339;53.304;10.406;2022-12-20T08:20:18;15.38;;;12.73;;
2658;SDS011;1339;53.304;10.406;2022-12-20T08:22:45;15.43;;;13.05;;
2658;SDS011;1339;53.304;10.406;2022-12-20T08:25:12;15.30;;;12.95;;
2658;SDS011;1339;53.304;10.406;2022-12-20T08:27:41;13.85;;;12.52;;
2658;SDS011;1339;53.304;10.406;2022-12-20T08:30:09;14.50;;;12.35;;
2658;SDS011;1339;53.304;10.406;2022-12-20T08:32:36;13.70;;;12.13;;
2658;SDS011;1339;53.304;10.406;2022-12-20T08:35:04;15.30;;;12.50;;
2658;SDS011;1339;53.304;10.406;2022-12-20T08:37:31;13.60;;;11.38;;
2658;SDS011;1339;53.304;10.406;2022-12-20T08:39:58;14.48;;;12.23;;
2658;SDS011;1339;53.304;10.406;2022-12-20T08:42:25;16.48;;;12.55;;
2658;SDS011;1339;53.304;10.406;2022-12-20T08:44:54;19.02;;;12.95;;
2658;SDS011;1339;53.304;10.406;2022-12-20T08:47:21;14.90;;;12.15;;
2658;SDS011;1339;53.304;10.406;2022-12-20T08:49:48;16.02;;;12.68;;
2658;SDS011;1339;53.304;10.406;2022-12-20T08:52:15;13.73;;;10.90;;
2658;SDS011;1339;53.304;10.406;2022-12-20T08:54:42;14.50;;;11.40;;
2658;SDS011;1339;53.304;10.406;2022-12-20T08:57:09;13.07;;;11.60;;
2658;SDS011;1339;53.304;10.406;2022-12-20T08:59:36;16.50;;;13.75;;
2658;SDS011;1339;53.304;10.406;2022-12-20T09:02:08;14.73;;;12.82;;
2658;SDS011;1339;53.304;10.406;2022-12-20T09:04:37;17.10;;;11.40;;
2658;SDS011;1339;53.304;10.406;2022-12-20T09:07:04;16.23;;;11.85;;
2658;SDS011;1339;53.304;10.406;2022-12-20T09:09:31;14.55;;;11.48;;
2658;SDS011;1339;53.304;10.406;2022-12-20T09:11:58;13.65;;;12.30;;
2658;SDS011;1339;53.304;10.406;2022-12-20T09:14:25;12.45;;;11.13;;
2658;SDS011;1339;53.304;10.406;2022-12-20T09:16:52;14.45;;;11.30;;
2658;SDS011;1339;53.304;10.406;2022-12-20T09:19:21;13.23;;;11.15;;
2658;SDS011;1339;53.304;10.406;2022-12-20T09:21:48;11.40;;;10.18;;
2658;SDS011;1339;53.304;10.406;2022-12-20T09:24:15;12.30;;;10.38;;
2658;SDS011;1339;53.304;10.406;2022-12-20T09:26:42;15.48;;;10.93;;
2658;SDS011;1339;53.304;10.406;2022-12-20T09:29:09;10.23;;;9.13;;
2658;SDS011;1339;53.304;10.406;2022-12-20T09:31:36;11.75;;;10.05;;
2658;SDS011;1339;53.304;10.406;2022-12-20T09:34:03;18.33;;;10.70;;
2658;SDS011;1339;53.304;10.406;2022-12-20T09:36:31;10.63;;;9.35;;
2658;SDS011;1339;53.304;10.406;2022-12-20T09:38:58;14.30;;;11.95;;
2658;SDS011;1339;53.304;10.406;2022-12-20T09:41:28;11.93;;;10.07;;
2658;SDS011;1339;53.304;10.406;2022-12-20T09:43:56;10.30;;;8.70;;
2658;SDS011;1339;53.304;10.406;2022-12-20T09:46:23;11.25;;;10.05;;
2658;SDS011;1339;53.304;10.406;2022-12-20T09:48:50;14.40;;;9.18;;
2658;SDS011;1339;53.304;10.406;2022-12-20T09:51:21;12.32;;;8.50;;
2658;SDS011;1339;53.304;10.406;2022-12-20T09:53:55;10.68;;;8.25;;
2658;SDS011;1339;53.304;10.406;2022-12-20T09:56:29;9.55;;;8.55;;
2658;SDS011;1339;53.304;10.406;2022-12-20T09:58:58;8.20;;;7.35;;
2658;SDS011;1339;53.304;10.406;2022-12-20T10:01:26;8.10;;;7.25;;
2658;SDS011;1339;53.304;10.406;2022-12-20T10:03:55;10.50;;;8.90;;
2658;SDS011;1339;53.304;10.406;2022-12-20T10:06:25;9.30;;;8.40;;
2658;SDS011;1339;53.304;10.406;2022-12-20T10:08:56;10.93;;;8.52;;
2658;SDS011;1339;53.304;10.406;2022-12-20T10:11:32;9.80;;;8.80;;
2658;SDS011;1339;53.304;10.406;2022-12-20T10:14:02;10.95;;;9.20;;
2658;SDS011;1339;53.304;10.406;2022-12-20T10:16:35;8.95;;;8.05;;
2658;SDS011;1339;53.304;10.406;2022-12-20T10:19:09;12.95;;;9.98;;
2658;SDS011;1339;53.304;10.406;2022-12-20T10:21:39;9.75;;;8.60;;
2658;SDS011;1339;53.304;10.406;2022-12-20T10:24:13;11.18;;;8.45;;
2658;SDS011;1339;53.304;10.406;2022-12-20T10:26:42;11.55;;;8.55;;
2658;SDS011;1339;53.304;10.406;2022-12-20T10:29:10;9.80;;;8.80;;
2658;SDS011;1339;53.304;10.406;2022-12-20T10:31:37;9.98;;;8.68;;
2658;SDS011;1339;53.304;10.406;2022-12-20T10:34:04;12.57;;;11.27;;
2658;SDS011;1339;53.304;10.406;2022-12-20T10:36:33;9.73;;;8.73;;
2658;SDS011;1339;53.304;10.406;2022-12-20T10:39:01;12.10;;;9.68;;
2658;SDS011;1339;53.304;10.406;2022-12-20T10:41:31;8.75;;;7.85;;
2658;SDS011;1339;53.304;10.406;2022-12-20T10:43:59;11.70;;;8.45;;
2658;SDS011;1339;53.304;10.406;2022-12-20T10:46:33;12.18;;;9.38;;
2658;SDS011;1339;53.304;10.406;2022-12-20T10:49:07;8.68;;;7.93;;
2658;SDS011;1339;53.304;10.406;2022-12-20T10:51:50;13.13;;;8.88;;
2658;SDS011;1339;53.304;10.406;2022-12-20T10:54:19;10.43;;;7.50;;
2658;SDS011;1339;53.304;10.406;2022-12-20T10:56:54;11.57;;;7.50;;
2658;SDS011;1339;53.304;10.406;2022-12-20T10:59:23;10.57;;;9.68;;
2658;SDS011;1339;53.304;10.406;2022-12-20T11:01:54;8.52;;;7.55;;
2658;SDS011;1339;53.304;10.406;2022-12-20T11:04:24;9.07;;;7.78;;
2658;SDS011;1339;53.304;10.406;2022-12-20T11:06:51;9.93;;;8.40;;
2658;SDS011;1339;53.304;10.406;2022-12-20T11:09:22;8.77;;;7.70;;
2658;SDS011;1339;53.304;10.406;2022-12-20T11:11:58;10.85;;;8.13;;
2658;SDS011;1339;53.304;10.406;2022-12-20T11:14:25;14.02;;;8.85;;
2658;SDS011;1339;53.304;10.406;2022-12-20T11:16:52;8.55;;;7.32;;
2658;SDS011;1339;53.304;10.406;2022-12-20T11:19:29;10.07;;;8.40;;
2658;SDS011;1339;53.304;10.406;2022-12-20T11:21:58;8.95;;;7.65;;
2658;SDS011;1339;53.304;10.406;2022-12-20T11:24:28;8.10;;;6.50;;
2658;SDS011;1339;53.304;10.406;2022-12-20T11:27:01;7.72;;;6.75;;
2658;SDS011;1339;53.304;10.406;2022-12-20T11:29:46;8.57;;;7.75;;
2658;SDS011;1339;53.304;10.406;2022-12-20T11:32:18;7.22;;;6.22;;
2658;SDS011;1339;53.304;10.406;2022-12-20T11:34:47;8.73;;;7.65;;
2658;SDS011;1339;53.304;10.406;2022-12-20T11:37:19;8.77;;;7.20;;
2658;SDS011;1339;53.304;10.406;2022-12-20T11:39:49;7.65;;;6.85;;
2658;SDS011;1339;53.304;10.406;2022-12-20T11:42:23;7.90;;;6.85;;
2658;SDS011;1339;53.304;10.406;2022-12-20T11:44:56;7.30;;;6.60;;
2658;SDS011;1339;53.304;10.406;2022-12-20T11:50:13;6.65;;;5.95;;
2658;SDS011;1339;53.304;10.406;2022-12-20T11:52:45;7.30;;;6.60;;
2658;SDS011;1339;53.304;10.406;2022-12-20T11:55:14;7.72;;;6.63;;
2658;SDS011;1339;53.304;10.406;2022-12-20T11:57:47;7.50;;;5.75;;
2658;SDS011;1339;53.304;10.406;2022-12-20T12:00:19;7.22;;;6.53;;
2658;SDS011;1339;53.304;10.406;2022-12-20T12:02:47;7.20;;;6.43;;
2658;SDS011;1339;53.304;10.406;2022-12-20T12:05:17;8.48;;;6.63;;
2658;SDS011;1339;53.304;10.406;2022-12-20T12:07:46;6.50;;;5.90;;
2658;SDS011;1339;53.304;10.406;2022-12-20T12:10:16;7.22;;;6.38;;
2658;SDS011;1339;53.304;10.406;2022-12-20T12:12:44;7.20;;;6.22;;
2658;SDS011;1339;53.304;10.406;2022-12-20T12:15:17;7.85;;;7.05;;
2658;SDS011;1339;53.304;10.406;2022-12-20T12:17:51;9.00;;;7.00;;
2658;SDS011;1339;53.304;10.406;2022-12-20T12:20:22;10.98;;;6.90;;
2658;SDS011;1339;53.304;10.406;2022-12-20T12:22:52;5.70;;;5.22;;
2658;SDS011;1339;53.304;10.406;2022-12-20T12:25:21;10.60;;;5.95;;
2658;SDS011;1339;53.304;10.406;2022-12-20T12:27:48;5.90;;;5.30;;
2658;SDS011;1339;53.304;10.406;2022-12-20T12:30:16;6.53;;;5.72;;
2658;SDS011;1339;53.304;10.406;2022-12-20T12:32:45;5.88;;;5.28;;
2658;SDS011;1339;53.304;10.406;2022-12-20T12:35:18;11.13;;;6.70;;
2658;SDS011;1339;53.304;10.406;2022-12-20T12:37:53;6.80;;;5.55;;
2658;SDS011;1339;53.304;10.406;2022-12-20T12:40:28;6.25;;;5.53;;
2658;SDS011;1339;53.304;10.406;2022-12-20T12:45:53;7.35;;;5.68;;
2658;SDS011;1339;53.304;10.406;2022-12-20T12:48:23;7.80;;;5.88;;
2658;SDS011;1339;53.304;10.406;2022-12-20T12:50:52;7.10;;;6.07;;
2658;SDS011;1339;53.304;10.406;2022-12-20T12:53:19;5.47;;;4.97;;
2658;SDS011;1339;53.304;10.406;2022-12-20T12:55:48;7.85;;;6.55;;
2658;SDS011;1339;53.304;10.406;2022-12-20T13:01:07;11.40;;;5.70;;
2658;SDS011;1339;53.304;10.406;2022-12-20T13:03:36;9.25;;;6.47;;
2658;SDS011;1339;53.304;10.406;2022-12-20T13:09:09;7.28;;;5.45;;
2658;SDS011;1339;53.304;10.406;2022-12-20T13:11:37;6.53;;;5.55;;
2658;SDS011;1339;53.304;10.406;2022-12-20T13:14:10;5.82;;;5.30;;
2658;SDS011;1339;53.304;10.406;2022-12-20T13:16:39;6.80;;;5.45;;
2658;SDS011;1339;53.304;10.406;2022-12-20T13:19:10;5.15;;;4.63;;
2658;SDS011;1339;53.304;10.406;2022-12-20T13:21:38;8.30;;;5.70;;
2658;SDS011;1339;53.304;10.406;2022-12-20T13:32:57;6.30;;;5.70;;
2658;SDS011;1339;53.304;10.406;2022-12-20T13:35:28;8.45;;;4.80;;
2658;SDS011;1339;53.304;10.406;2022-12-20T13:37:56;6.35;;;4.88;;
2658;SDS011;1339;53.304;10.406;2022-12-20T13:40:29;5.40;;;4.32;;
2658;SDS011;1339;53.304;10.406;2022-12-20T13:42:57;5.63;;;4.85;;
2658;SDS011;1339;53.304;10.406;2022-12-20T13:45:24;5.85;;;5.38;;
2658;SDS011;1339;53.304;10.406;2022-12-20T13:47:52;6.63;;;4.68;;
2658;SDS011;1339;53.304;10.406;2022-12-20T13:50:30;4.85;;;4.40;;
2658;SDS011;1339;53.304;10.406;2022-12-20T13:52:59;10.80;;;5.70;;
2658;SDS011;1339;53.304;10.406;2022-12-20T13:55:31;6.63;;;5.45;;
2658;SDS011;1339;53.304;10.406;2022-12-20T13:58:02;8.95;;;4.75;;
2658;SDS011;1339;53.304;10.406;2022-12-20T14:00:31;5.15;;;4.65;;
2658;SDS011;1339;53.304;10.406;2022-12-20T14:02:58;5.20;;;4.70;;
2658;SDS011;1339;53.304;10.406;2022-12-20T14:05:31;5.95;;;5.28;;
2658;SDS011;1339;53.304;10.406;2022-12-20T14:07:59;6.35;;;4.60;;
2658;SDS011;1339;53.304;10.406;2022-12-20T14:10:27;5.80;;;4.60;;
2658;SDS011;1339;53.304;10.406;2022-12-20T14:12:54;5.35;;;4.75;;
2658;SDS011;1339;53.304;10.406;2022-12-20T14:15:22;5.80;;;4.45;;
2658;SDS011;1339;53.304;10.406;2022-12-20T14:17:50;4.95;;;4.32;;
2658;SDS011;1339;53.304;10.406;2022-12-20T14:20:18;4.53;;;4.13;;
2658;SDS011;1339;53.304;10.406;2022-12-20T14:22:50;5.50;;;5.00;;
2658;SDS011;1339;53.304;10.406;2022-12-20T14:25:21;5.03;;;4.53;;
2658;SDS011;1339;53.304;10.406;2022-12-20T14:27:52;4.20;;;3.85;;
2658;SDS011;1339;53.304;10.406;2022-12-20T14:33:14;6.00;;;4.70;;
2658;SDS011;1339;53.304;10.406;2022-12-20T14:35:45;7.68;;;5.43;;
2658;SDS011;1339;53.304;10.406;2022-12-20T14:38:19;5.25;;;3.92;;
2658;SDS011;1339;53.304;10.406;2022-12-20T14:40:46;4.97;;;4.47;;
2658;SDS011;1339;53.304;10.406;2022-12-20T14:43:13;6.05;;;4.72;;
2658;SDS011;1339;53.304;10.406;2022-12-20T14:45:41;5.00;;;4.55;;
2658;SDS011;1339;53.304;10.406;2022-12-20T14:48:11;4.53;;;4.13;;
2658;SDS011;1339;53.304;10.406;2022-12-20T14:50:40;4.35;;;3.90;;
2658;SDS011;1339;53.304;10.406;2022-12-20T14:53:17;5.90;;;3.70;;
2658;SDS011;1339;53.304;10.406;2022-12-20T14:55:46;4.35;;;3.95;;
2658;SDS011;1339;53.304;10.406;2022-12-20T14:58:21;4.93;;;4.53;;
2658;SDS011;1339;53.304;10.406;2022-12-20T15:00:56;6.10;;;5.50;;
2658;SDS011;1339;53.304;10.406;2022-12-20T15:03:24;5.18;;;4.68;;
2658;SDS011;1339;53.304;10.406;2022-12-20T15:05:51;5.43;;;4.93;;
2658;SDS011;1339;53.304;10.406;2022-12-20T15:08:20;5.45;;;4.75;;
2658;SDS011;1339;53.304;10.406;2022-12-20T15:13:38;5.22;;;4.72;;
2658;SDS011;1339;53.304;10.406;2022-12-20T15:16:11;10.73;;;5.18;;
2658;SDS011;1339;53.304;10.406;2022-12-20T15:18:39;5.45;;;4.90;;
2658;SDS011;1339;53.304;10.406;2022-12-20T15:21:09;5.38;;;4.90;;
2658;SDS011;1339;53.304;10.406;2022-12-20T15:23:39;5.60;;;4.32;;
2658;SDS011;1339;53.304;10.406;2022-12-20T15:26:08;5.93;;;5.30;;